Terminal Aerodrome Forecast
Issued by NWS

Home | Current Version | Previous Version | Text Only | Print | Product List | Glossary On
Versions: 1 2 3 4 5 6 7 8 9 10 11 12 13 14 15 16 17 18 19 20 21 22 23 24 25
000
FTUS43 KAPX 280250 AAA
TAFMBL
TAF AMD
KMBL 280250Z 2803/2824 00000KT P6SM SKC
      TEMPO 2804/2808 3SM BR
     FM280800 00000KT 1SM BR SCT002 SCT030
     FM281200 17003KT P6SM SCT030
     FM281600 24008KT P6SM SCT040
     FM282100 23008KT P6SM BKN120
      AMD LTD TO CLD VIS AND WIND=

USA.gov is the U.S. government's official web portal to all federal, state and local government web resources and services.